HL1230 RKJB-RKJY
Flight info
| Callsign | HL1230 |
|---|---|
| Flight time | N/A |
| Altitude | 9000 |
| Route | KWA V543 TEDAN DCT |
| Aircraft | C172/L-SFG/L |
Departure
| Time | 2026-04-18 18:05 |
|---|---|
| Airport | Muan International Airport (RKJB) |
Arrival
| Time | N/A |
|---|---|
| Airport | Yeosu Airport (RKJY) |
| Time | Latitude | Longitude | Altitude | Speed | Heading |
|---|---|---|---|---|---|
| 2026-04-18 18:04 | 35.09169 | 126.67564 | 8968 ft | 70 kts | 78° |
| 2026-04-18 18:05 | 35.09467 | 126.68778 | 8970 ft | 78 kts | 78° |
| 2026-04-18 18:05 | 35.09628 | 126.69434 | 8972 ft | 81 kts | 78° |
| 2026-04-18 18:05 | 35.09792 | 126.70096 | 8972 ft | 83 kts | 79° |
| 2026-04-18 18:06 | 35.10135 | 126.71476 | 8970 ft | 85 kts | 79° |
| 2026-04-18 18:06 | 35.10311 | 126.72176 | 8967 ft | 85 kts | 78° |
| 2026-04-18 18:06 | 35.10484 | 126.72862 | 8970 ft | 85 kts | 78° |
| 2026-04-18 18:07 | 35.10658 | 126.73549 | 8970 ft | 84 kts | 78° |
| 2026-04-18 18:07 | 35.10830 | 126.74232 | 8964 ft | 84 kts | 79° |
| 2026-04-18 18:07 | 35.11170 | 126.75573 | 8964 ft | 82 kts | 78° |
| 2026-04-18 18:08 | 35.11341 | 126.76247 | 8963 ft | 82 kts | 78° |
| 2026-04-18 18:08 | 35.11512 | 126.76917 | 8966 ft | 82 kts | 78° |
| 2026-04-18 18:08 | 35.11682 | 126.77589 | 8962 ft | 82 kts | 78° |
| 2026-04-18 18:08 | 35.11852 | 126.78253 | 8966 ft | 82 kts | 77° |
| 2026-04-18 18:09 | 35.12020 | 126.78917 | 8964 ft | 82 kts | 78° |
| 2026-04-18 18:09 | 35.12190 | 126.79584 | 8967 ft | 81 kts | 78° |
| 2026-04-18 18:09 | 35.12358 | 126.80244 | 8964 ft | 81 kts | 78° |
| 2026-04-18 18:09 | 35.12527 | 126.80905 | 8967 ft | 81 kts | 77° |
| 2026-04-18 18:10 | 35.12594 | 126.81582 | 8965 ft | 80 kts | 90° |
| 2026-04-18 18:10 | 35.12603 | 126.82266 | 8967 ft | 80 kts | 90° |
| 2026-04-18 18:10 | 35.12611 | 126.82951 | 8965 ft | 81 kts | 91° |
| 2026-04-18 18:10 | 35.12616 | 126.83640 | 8962 ft | 81 kts | 90° |
| 2026-04-18 18:11 | 35.12622 | 126.84336 | 8966 ft | 81 kts | 91° |
| 2026-04-18 18:11 | 35.12629 | 126.85024 | 8965 ft | 80 kts | 91° |
| 2026-04-18 18:11 | 35.12633 | 126.85709 | 8964 ft | 80 kts | 91° |
| 2026-04-18 18:11 | 35.12638 | 126.86388 | 8966 ft | 80 kts | 92° |
| 2026-04-18 18:12 | 35.12643 | 126.87072 | 8967 ft | 80 kts | 91° |
| 2026-04-18 18:12 | 35.12648 | 126.87746 | 8970 ft | 80 kts | 92° |
| 2026-04-18 18:12 | 35.12653 | 126.88425 | 8968 ft | 80 kts | 90° |
| 2026-04-18 18:12 | 35.12657 | 126.89111 | 8968 ft | 80 kts | 91° |
| 2026-04-18 18:13 | 35.12663 | 126.89795 | 8967 ft | 80 kts | 91° |
| 2026-04-18 18:13 | 35.12666 | 126.90469 | 8964 ft | 80 kts | 90° |
| 2026-04-18 18:13 | 35.12672 | 126.91148 | 8967 ft | 79 kts | 92° |
| 2026-04-18 18:13 | 35.12676 | 126.91824 | 8972 ft | 79 kts | 91° |
| 2026-04-18 18:14 | 35.12681 | 126.92509 | 8970 ft | 80 kts | 91° |
| 2026-04-18 18:14 | 35.12684 | 126.93185 | 8969 ft | 81 kts | 91° |
| 2026-04-18 18:14 | 35.12690 | 126.93881 | 8972 ft | 81 kts | 91° |
| 2026-04-18 18:14 | 35.12693 | 126.94577 | 8967 ft | 81 kts | 91° |
| 2026-04-18 18:15 | 35.12698 | 126.95269 | 8957 ft | 81 kts | 92° |
| 2026-04-18 18:15 | 35.12702 | 126.95959 | 8958 ft | 81 kts | 92° |
| 2026-04-18 18:15 | 35.12706 | 126.96657 | 8953 ft | 82 kts | 92° |
| 2026-04-18 18:15 | 35.12711 | 126.97345 | 8948 ft | 81 kts | 91° |
| 2026-04-18 18:16 | 35.12714 | 126.98036 | 8951 ft | 80 kts | 91° |
| 2026-04-18 18:16 | 35.12717 | 126.98724 | 8952 ft | 81 kts | 91° |
| 2026-04-18 18:16 | 35.12722 | 126.99415 | 8952 ft | 81 kts | 92° |
| 2026-04-18 18:16 | 35.12727 | 127.00108 | 8945 ft | 81 kts | 91° |
| 2026-04-18 18:17 | 35.12730 | 127.00793 | 8951 ft | 80 kts | 91° |
| 2026-04-18 18:17 | 35.12735 | 127.01470 | 8953 ft | 80 kts | 92° |
| 2026-04-18 18:17 | 35.12738 | 127.02150 | 8952 ft | 80 kts | 91° |